sensor_id;sensor_type;location;lat;lon;timestamp;temperature;humidity
67750;DHT22;54550;48.838;8.828;2022-07-29T00:01:43;16.50;99.90
67750;DHT22;54550;48.838;8.828;2022-07-29T00:04:08;16.40;99.90
67750;DHT22;54550;48.838;8.828;2022-07-29T00:06:34;16.40;99.90
67750;DHT22;54550;48.838;8.828;2022-07-29T00:08:59;16.30;99.90
67750;DHT22;54550;48.838;8.828;2022-07-29T00:11:25;16.30;99.90
67750;DHT22;54550;48.838;8.828;2022-07-29T00:13:50;16.30;99.90
67750;DHT22;54550;48.838;8.828;2022-07-29T00:16:16;16.40;99.90
67750;DHT22;54550;48.838;8.828;2022-07-29T00:18:42;16.40;99.90
67750;DHT22;54550;48.838;8.828;2022-07-29T00:21:07;16.40;99.90
67750;DHT22;54550;48.838;8.828;2022-07-29T00:23:34;16.30;99.90
67750;DHT22;54550;48.838;8.828;2022-07-29T00:25:59;16.40;99.90
67750;DHT22;54550;48.838;8.828;2022-07-29T00:28:25;16.30;99.90
67750;DHT22;54550;48.838;8.828;2022-07-29T00:30:50;16.40;99.90
67750;DHT22;54550;48.838;8.828;2022-07-29T00:33:16;16.50;99.90
67750;DHT22;54550;48.838;8.828;2022-07-29T00:35:42;16.50;99.90
67750;DHT22;54550;48.838;8.828;2022-07-29T00:38:13;16.50;99.90
67750;DHT22;54550;48.838;8.828;2022-07-29T00:40:39;16.60;99.90
67750;DHT22;54550;48.838;8.828;2022-07-29T00:43:05;16.60;99.90
67750;DHT22;54550;48.838;8.828;2022-07-29T00:45:31;16.60;99.90
67750;DHT22;54550;48.838;8.828;2022-07-29T00:47:56;16.60;99.90
67750;DHT22;54550;48.838;8.828;2022-07-29T00:50:22;16.50;99.90
67750;DHT22;54550;48.838;8.828;2022-07-29T00:52:48;16.50;99.90
67750;DHT22;54550;48.838;8.828;2022-07-29T00:55:15;16.50;99.90
67750;DHT22;54550;48.838;8.828;2022-07-29T00:57:43;16.40;99.90
67750;DHT22;54550;48.838;8.828;2022-07-29T01:00:12;16.50;99.90
67750;DHT22;54550;48.838;8.828;2022-07-29T01:02:38;16.50;99.90
67750;DHT22;54550;48.838;8.828;2022-07-29T01:05:04;16.50;99.90
67750;DHT22;54550;48.838;8.828;2022-07-29T01:07:32;16.60;99.90
67750;DHT22;54550;48.838;8.828;2022-07-29T01:09:59;16.50;99.90
67750;DHT22;54550;48.838;8.828;2022-07-29T01:12:27;16.60;99.90
67750;DHT22;54550;48.838;8.828;2022-07-29T01:14:55;16.60;99.90
67750;DHT22;54550;48.838;8.828;2022-07-29T01:17:33;16.60;99.90
67750;DHT22;54550;48.838;8.828;2022-07-29T01:20:15;16.70;99.90
67750;DHT22;54550;48.838;8.828;2022-07-29T01:23:01;16.70;99.90
67750;DHT22;54550;48.838;8.828;2022-07-29T01:29:56;16.80;99.90
67750;DHT22;54550;48.838;8.828;2022-07-29T01:34:27;16.90;99.90
67750;DHT22;54550;48.838;8.828;2022-07-29T01:37:06;16.90;99.90
67750;DHT22;54550;48.838;8.828;2022-07-29T01:39:36;16.90;99.90
67750;DHT22;54550;48.838;8.828;2022-07-29T01:42:44;16.90;99.90
67750;DHT22;54550;48.838;8.828;2022-07-29T01:48:02;16.90;99.90
67750;DHT22;54550;48.838;8.828;2022-07-29T01:50:33;16.90;99.90
67750;DHT22;54550;48.838;8.828;2022-07-29T01:53:05;16.80;99.90
67750;DHT22;54550;48.838;8.828;2022-07-29T01:55:35;16.90;99.90
67750;DHT22;54550;48.838;8.828;2022-07-29T01:58:03;16.80;99.90
67750;DHT22;54550;48.838;8.828;2022-07-29T02:00:31;16.80;99.90
67750;DHT22;54550;48.838;8.828;2022-07-29T02:02:59;16.80;99.90
67750;DHT22;54550;48.838;8.828;2022-07-29T02:05:27;16.90;99.90
67750;DHT22;54550;48.838;8.828;2022-07-29T02:07:55;16.90;99.90
67750;DHT22;54550;48.838;8.828;2022-07-29T02:10:26;17.00;99.90
67750;DHT22;54550;48.838;8.828;2022-07-29T02:12:54;16.90;99.90
67750;DHT22;54550;48.838;8.828;2022-07-29T02:15:20;17.00;99.90
67750;DHT22;54550;48.838;8.828;2022-07-29T02:17:58;16.90;99.90
67750;DHT22;54550;48.838;8.828;2022-07-29T02:20:25;16.80;99.90
67750;DHT22;54550;48.838;8.828;2022-07-29T02:22:52;16.80;99.90
67750;DHT22;54550;48.838;8.828;2022-07-29T02:25:18;16.70;99.90
67750;DHT22;54550;48.838;8.828;2022-07-29T02:27:47;16.80;99.90
67750;DHT22;54550;48.838;8.828;2022-07-29T02:30:14;16.80;99.90
67750;DHT22;54550;48.838;8.828;2022-07-29T02:32:41;16.90;99.90
67750;DHT22;54550;48.838;8.828;2022-07-29T02:35:08;16.90;99.90
67750;DHT22;54550;48.838;8.828;2022-07-29T02:37:36;16.90;99.90
67750;DHT22;54550;48.838;8.828;2022-07-29T02:40:02;17.00;99.90
67750;DHT22;54550;48.838;8.828;2022-07-29T02:42:28;16.90;99.90
67750;DHT22;54550;48.838;8.828;2022-07-29T02:44:55;16.90;99.90
67750;DHT22;54550;48.838;8.828;2022-07-29T02:50:06;16.90;99.90
67750;DHT22;54550;48.838;8.828;2022-07-29T02:52:52;16.90;99.90
67750;DHT22;54550;48.838;8.828;2022-07-29T02:55:34;16.80;99.90
67750;DHT22;54550;48.838;8.828;2022-07-29T03:00:52;16.70;99.90
67750;DHT22;54550;48.838;8.828;2022-07-29T03:03:19;16.60;99.90
67750;DHT22;54550;48.838;8.828;2022-07-29T03:05:46;16.60;99.90
67750;DHT22;54550;48.838;8.828;2022-07-29T03:08:12;16.60;99.90
67750;DHT22;54550;48.838;8.828;2022-07-29T03:10:43;16.60;99.90
67750;DHT22;54550;48.838;8.828;2022-07-29T03:13:11;16.60;99.90
67750;DHT22;54550;48.838;8.828;2022-07-29T03:15:38;16.60;99.90
67750;DHT22;54550;48.838;8.828;2022-07-29T03:18:05;16.70;99.90
67750;DHT22;54550;48.838;8.828;2022-07-29T03:20:31;16.80;99.90
67750;DHT22;54550;48.838;8.828;2022-07-29T03:22:57;16.80;99.90
67750;DHT22;54550;48.838;8.828;2022-07-29T03:25:23;16.90;99.90
67750;DHT22;54550;48.838;8.828;2022-07-29T03:27:49;17.00;99.90
67750;DHT22;54550;48.838;8.828;2022-07-29T03:30:15;17.10;99.90
67750;DHT22;54550;48.838;8.828;2022-07-29T03:32:41;17.10;99.90
67750;DHT22;54550;48.838;8.828;2022-07-29T03:35:07;17.10;99.90
67750;DHT22;54550;48.838;8.828;2022-07-29T03:37:33;17.10;99.90
67750;DHT22;54550;48.838;8.828;2022-07-29T03:40:00;17.00;99.90
67750;DHT22;54550;48.838;8.828;2022-07-29T03:42:30;17.00;99.90
67750;DHT22;54550;48.838;8.828;2022-07-29T03:44:57;17.00;99.90
67750;DHT22;54550;48.838;8.828;2022-07-29T03:47:26;17.00;99.90
67750;DHT22;54550;48.838;8.828;2022-07-29T03:49:55;16.90;99.90
67750;DHT22;54550;48.838;8.828;2022-07-29T03:52:22;16.90;99.90
67750;DHT22;54550;48.838;8.828;2022-07-29T03:54:48;17.00;99.90
67750;DHT22;54550;48.838;8.828;2022-07-29T03:57:15;16.90;99.90
67750;DHT22;54550;48.838;8.828;2022-07-29T03:59:41;16.80;99.90
67750;DHT22;54550;48.838;8.828;2022-07-29T04:02:09;16.80;99.90
67750;DHT22;54550;48.838;8.828;2022-07-29T04:04:36;16.70;99.90
67750;DHT22;54550;48.838;8.828;2022-07-29T04:07:02;16.60;99.90
67750;DHT22;54550;48.838;8.828;2022-07-29T04:09:28;16.60;99.90
67750;DHT22;54550;48.838;8.828;2022-07-29T04:11:53;16.60;99.90
67750;DHT22;54550;48.838;8.828;2022-07-29T04:14:19;16.60;99.90
67750;DHT22;54550;48.838;8.828;2022-07-29T04:16:45;16.60;99.90
67750;DHT22;54550;48.838;8.828;2022-07-29T04:19:11;16.60;99.90
67750;DHT22;54550;48.838;8.828;2022-07-29T04:21:38;16.60;99.90
67750;DHT22;54550;48.838;8.828;2022-07-29T04:24:04;16.60;99.90
67750;DHT22;54550;48.838;8.828;2022-07-29T04:26:29;16.60;99.90
67750;DHT22;54550;48.838;8.828;2022-07-29T04:28:55;16.60;99.90
67750;DHT22;54550;48.838;8.828;2022-07-29T04:31:21;16.60;99.90
67750;DHT22;54550;48.838;8.828;2022-07-29T04:33:46;16.70;99.90
67750;DHT22;54550;48.838;8.828;2022-07-29T04:36:12;16.70;99.90
67750;DHT22;54550;48.838;8.828;2022-07-29T04:38:38;16.70;99.90
67750;DHT22;54550;48.838;8.828;2022-07-29T04:41:03;16.80;99.90
67750;DHT22;54550;48.838;8.828;2022-07-29T04:43:29;16.80;99.90
67750;DHT22;54550;48.838;8.828;2022-07-29T04:45:54;16.80;99.90
67750;DHT22;54550;48.838;8.828;2022-07-29T04:48:20;17.00;99.90
67750;DHT22;54550;48.838;8.828;2022-07-29T04:50:45;17.30;99.90
67750;DHT22;54550;48.838;8.828;2022-07-29T04:53:11;17.50;99.90
67750;DHT22;54550;48.838;8.828;2022-07-29T04:55:36;17.80;99.90
67750;DHT22;54550;48.838;8.828;2022-07-29T04:58:02;18.00;99.90
67750;DHT22;54550;48.838;8.828;2022-07-29T05:00:27;18.10;99.90
67750;DHT22;54550;48.838;8.828;2022-07-29T05:02:53;18.10;99.90
67750;DHT22;54550;48.838;8.828;2022-07-29T05:05:20;18.10;99.90
67750;DHT22;54550;48.838;8.828;2022-07-29T05:07:45;18.00;99.90
67750;DHT22;54550;48.838;8.828;2022-07-29T05:10:11;17.90;99.90
67750;DHT22;54550;48.838;8.828;2022-07-29T05:12:37;17.80;99.90
67750;DHT22;54550;48.838;8.828;2022-07-29T05:15:02;17.80;99.90
67750;DHT22;54550;48.838;8.828;2022-07-29T05:17:28;17.90;99.90
67750;DHT22;54550;48.838;8.828;2022-07-29T05:19:54;17.90;99.90
67750;DHT22;54550;48.838;8.828;2022-07-29T05:22:20;18.00;99.90
67750;DHT22;54550;48.838;8.828;2022-07-29T05:24:46;18.00;99.90
67750;DHT22;54550;48.838;8.828;2022-07-29T05:27:11;18.30;99.90
67750;DHT22;54550;48.838;8.828;2022-07-29T05:29:37;18.50;99.90
67750;DHT22;54550;48.838;8.828;2022-07-29T05:32:04;18.60;99.90
67750;DHT22;54550;48.838;8.828;2022-07-29T05:34:29;18.60;99.90
67750;DHT22;54550;48.838;8.828;2022-07-29T05:36:56;18.60;99.90
67750;DHT22;54550;48.838;8.828;2022-07-29T05:39:22;19.30;99.90
67750;DHT22;54550;48.838;8.828;2022-07-29T05:41:49;20.00;99.90
67750;DHT22;54550;48.838;8.828;2022-07-29T05:44:14;20.50;99.90
67750;DHT22;54550;48.838;8.828;2022-07-29T05:46:40;21.00;99.90
67750;DHT22;54550;48.838;8.828;2022-07-29T05:49:06;20.60;99.90
67750;DHT22;54550;48.838;8.828;2022-07-29T05:51:33;20.20;99.90
67750;DHT22;54550;48.838;8.828;2022-07-29T05:53:59;20.20;99.90
67750;DHT22;54550;48.838;8.828;2022-07-29T05:56:25;20.00;99.90
67750;DHT22;54550;48.838;8.828;2022-07-29T05:58:51;20.00;99.90
67750;DHT22;54550;48.838;8.828;2022-07-29T06:01:17;20.00;99.90
67750;DHT22;54550;48.838;8.828;2022-07-29T06:03:42;20.40;99.90
67750;DHT22;54550;48.838;8.828;2022-07-29T06:06:08;20.60;99.90
67750;DHT22;54550;48.838;8.828;2022-07-29T06:08:34;20.90;99.90
67750;DHT22;54550;48.838;8.828;2022-07-29T06:11:01;20.90;99.90
67750;DHT22;54550;48.838;8.828;2022-07-29T06:13:27;21.30;99.90
67750;DHT22;54550;48.838;8.828;2022-07-29T06:15:53;21.20;99.90
67750;DHT22;54550;48.838;8.828;2022-07-29T06:18:18;21.00;99.90
67750;DHT22;54550;48.838;8.828;2022-07-29T06:20:46;21.10;99.90
67750;DHT22;54550;48.838;8.828;2022-07-29T06:23:11;20.90;99.90
67750;DHT22;54550;48.838;8.828;2022-07-29T06:25:39;21.30;99.90
67750;DHT22;54550;48.838;8.828;2022-07-29T06:28:04;21.40;99.90
67750;DHT22;54550;48.838;8.828;2022-07-29T06:30:30;21.40;99.90
67750;DHT22;54550;48.838;8.828;2022-07-29T06:32:55;21.90;99.90
67750;DHT22;54550;48.838;8.828;2022-07-29T06:35:21;22.40;99.90
67750;DHT22;54550;48.838;8.828;2022-07-29T06:37:47;22.80;99.90
67750;DHT22;54550;48.838;8.828;2022-07-29T06:40:12;23.50;99.90
67750;DHT22;54550;48.838;8.828;2022-07-29T06:42:56;23.70;99.90
67750;DHT22;54550;48.838;8.828;2022-07-29T06:45:22;23.80;99.90
67750;DHT22;54550;48.838;8.828;2022-07-29T06:47:48;24.10;99.90
67750;DHT22;54550;48.838;8.828;2022-07-29T06:50:15;24.50;99.90
67750;DHT22;54550;48.838;8.828;2022-07-29T06:52:41;24.80;99.90
67750;DHT22;54550;48.838;8.828;2022-07-29T06:55:08;24.30;99.90
67750;DHT22;54550;48.838;8.828;2022-07-29T06:57:34;24.70;99.90
67750;DHT22;54550;48.838;8.828;2022-07-29T07:00:01;24.60;99.90
67750;DHT22;54550;48.838;8.828;2022-07-29T07:02:29;24.30;99.90
67750;DHT22;54550;48.838;8.828;2022-07-29T07:04:55;24.10;99.90
67750;DHT22;54550;48.838;8.828;2022-07-29T07:07:20;24.00;99.90
67750;DHT22;54550;48.838;8.828;2022-07-29T07:09:46;24.00;99.90
67750;DHT22;54550;48.838;8.828;2022-07-29T07:12:13;24.90;99.90
67750;DHT22;54550;48.838;8.828;2022-07-29T07:14:38;25.20;99.90
67750;DHT22;54550;48.838;8.828;2022-07-29T07:17:06;25.00;99.90
67750;DHT22;54550;48.838;8.828;2022-07-29T07:19:32;25.30;99.90
67750;DHT22;54550;48.838;8.828;2022-07-29T07:21:58;26.20;99.90
67750;DHT22;54550;48.838;8.828;2022-07-29T07:24:23;26.70;99.90
67750;DHT22;54550;48.838;8.828;2022-07-29T07:26:49;26.90;99.90
67750;DHT22;54550;48.838;8.828;2022-07-29T07:29:14;26.70;99.80
67750;DHT22;54550;48.838;8.828;2022-07-29T07:31:40;26.20;99.90
67750;DHT22;54550;48.838;8.828;2022-07-29T07:34:05;25.40;99.90
67750;DHT22;54550;48.838;8.828;2022-07-29T07:36:31;24.60;99.90
67750;DHT22;54550;48.838;8.828;2022-07-29T07:38:56;24.70;99.90
67750;DHT22;54550;48.838;8.828;2022-07-29T07:41:22;25.80;99.90
67750;DHT22;54550;48.838;8.828;2022-07-29T07:43:47;26.30;99.90
67750;DHT22;54550;48.838;8.828;2022-07-29T07:46:13;26.40;99.90
67750;DHT22;54550;48.838;8.828;2022-07-29T07:48:39;26.50;99.40
67750;DHT22;54550;48.838;8.828;2022-07-29T07:51:05;26.30;99.90
67750;DHT22;54550;48.838;8.828;2022-07-29T07:53:31;26.50;99.90
67750;DHT22;54550;48.838;8.828;2022-07-29T07:55:56;26.10;99.70
67750;DHT22;54550;48.838;8.828;2022-07-29T07:58:22;25.60;99.60
67750;DHT22;54550;48.838;8.828;2022-07-29T08:00:47;26.00;99.90
67750;DHT22;54550;48.838;8.828;2022-07-29T08:03:13;26.50;97.70
67750;DHT22;54550;48.838;8.828;2022-07-29T08:05:39;27.90;95.40
67750;DHT22;54550;48.838;8.828;2022-07-29T08:08:06;29.10;94.20
67750;DHT22;54550;48.838;8.828;2022-07-29T08:10:32;28.90;93.60
67750;DHT22;54550;48.838;8.828;2022-07-29T08:13:16;29.40;94.90
67750;DHT22;54550;48.838;8.828;2022-07-29T08:15:41;28.70;92.60
67750;DHT22;54550;48.838;8.828;2022-07-29T08:18:08;29.20;93.30
67750;DHT22;54550;48.838;8.828;2022-07-29T08:20:35;29.80;91.00
67750;DHT22;54550;48.838;8.828;2022-07-29T08:23:01;29.40;92.30
67750;DHT22;54550;48.838;8.828;2022-07-29T08:25:27;28.90;92.60
67750;DHT22;54550;48.838;8.828;2022-07-29T08:27:53;29.20;91.50
67750;DHT22;54550;48.838;8.828;2022-07-29T08:30:18;29.90;90.40
67750;DHT22;54550;48.838;8.828;2022-07-29T08:32:44;29.80;90.00
67750;DHT22;54550;48.838;8.828;2022-07-29T08:35:10;29.60;88.40
67750;DHT22;54550;48.838;8.828;2022-07-29T08:37:35;29.50;87.80
67750;DHT22;54550;48.838;8.828;2022-07-29T08:40:01;29.10;88.40
67750;DHT22;54550;48.838;8.828;2022-07-29T08:42:26;29.60;87.40
67750;DHT22;54550;48.838;8.828;2022-07-29T08:44:52;29.40;86.60
67750;DHT22;54550;48.838;8.828;2022-07-29T08:47:19;29.90;86.60
67750;DHT22;54550;48.838;8.828;2022-07-29T08:49:44;30.40;85.30
67750;DHT22;54550;48.838;8.828;2022-07-29T08:52:12;30.60;83.80
67750;DHT22;54550;48.838;8.828;2022-07-29T08:54:40;29.00;86.20
67750;DHT22;54550;48.838;8.828;2022-07-29T08:57:10;29.40;86.50
67750;DHT22;54550;48.838;8.828;2022-07-29T08:59:40;29.60;84.60
67750;DHT22;54550;48.838;8.828;2022-07-29T09:02:15;28.70;85.30
67750;DHT22;54550;48.838;8.828;2022-07-29T09:04:44;28.10;85.60
67750;DHT22;54550;48.838;8.828;2022-07-29T09:07:10;28.20;85.60
67750;DHT22;54550;48.838;8.828;2022-07-29T09:09:39;29.30;85.10
67750;DHT22;54550;48.838;8.828;2022-07-29T09:12:05;30.00;81.00
67750;DHT22;54550;48.838;8.828;2022-07-29T09:14:33;29.70;81.10
67750;DHT22;54550;48.838;8.828;2022-07-29T09:16:59;30.60;79.40
67750;DHT22;54550;48.838;8.828;2022-07-29T09:19:35;30.40;78.40
67750;DHT22;54550;48.838;8.828;2022-07-29T09:22:03;30.40;78.50
67750;DHT22;54550;48.838;8.828;2022-07-29T09:24:43;29.80;80.40
67750;DHT22;54550;48.838;8.828;2022-07-29T09:27:17;29.40;81.10
67750;DHT22;54550;48.838;8.828;2022-07-29T09:29:44;30.40;78.00
67750;DHT22;54550;48.838;8.828;2022-07-29T09:32:10;30.50;77.80
67750;DHT22;54550;48.838;8.828;2022-07-29T09:34:36;30.10;77.70
67750;DHT22;54550;48.838;8.828;2022-07-29T09:37:02;30.30;78.70
67750;DHT22;54550;48.838;8.828;2022-07-29T09:39:33;30.10;78.90
67750;DHT22;54550;48.838;8.828;2022-07-29T09:42:02;29.40;78.10
67750;DHT22;54550;48.838;8.828;2022-07-29T09:44:49;29.20;79.30
67750;DHT22;54550;48.838;8.828;2022-07-29T09:47:17;29.20;77.80
67750;DHT22;54550;48.838;8.828;2022-07-29T09:49:58;28.50;79.60
67750;DHT22;54550;48.838;8.828;2022-07-29T09:52:25;28.40;80.50
67750;DHT22;54550;48.838;8.828;2022-07-29T09:54:51;28.90;78.60
67750;DHT22;54550;48.838;8.828;2022-07-29T09:57:26;29.20;78.20
67750;DHT22;54550;48.838;8.828;2022-07-29T10:02:33;28.90;78.10
67750;DHT22;54550;48.838;8.828;2022-07-29T10:05:01;28.10;79.80
67750;DHT22;54550;48.838;8.828;2022-07-29T10:07:28;28.40;80.50
67750;DHT22;54550;48.838;8.828;2022-07-29T10:10:08;27.80;80.30
67750;DHT22;54550;48.838;8.828;2022-07-29T10:12:33;27.70;79.70
67750;DHT22;54550;48.838;8.828;2022-07-29T10:15:02;27.90;79.90
67750;DHT22;54550;48.838;8.828;2022-07-29T10:17:28;27.40;80.10
67750;DHT22;54550;48.838;8.828;2022-07-29T10:19:53;27.70;80.50
67750;DHT22;54550;48.838;8.828;2022-07-29T10:22:19;27.60;79.40
67750;DHT22;54550;48.838;8.828;2022-07-29T10:24:45;27.20;80.60
67750;DHT22;54550;48.838;8.828;2022-07-29T10:27:11;27.40;83.40
67750;DHT22;54550;48.838;8.828;2022-07-29T10:29:36;28.10;78.30
67750;DHT22;54550;48.838;8.828;2022-07-29T10:32:16;28.00;78.50
67750;DHT22;54550;48.838;8.828;2022-07-29T10:43:41;28.40;78.60
67750;DHT22;54550;48.838;8.828;2022-07-29T10:46:08;27.90;78.70
67750;DHT22;54550;48.838;8.828;2022-07-29T10:48:34;27.70;79.80
67750;DHT22;54550;48.838;8.828;2022-07-29T10:51:02;27.10;79.30
67750;DHT22;54550;48.838;8.828;2022-07-29T10:53:50;27.50;79.60
67750;DHT22;54550;48.838;8.828;2022-07-29T10:56:25;27.80;78.50
67750;DHT22;54550;48.838;8.828;2022-07-29T11:01:45;28.20;78.00
67750;DHT22;54550;48.838;8.828;2022-07-29T11:04:11;28.50;76.00
67750;DHT22;54550;48.838;8.828;2022-07-29T11:09:28;28.80;76.50
67750;DHT22;54550;48.838;8.828;2022-07-29T11:11:56;27.70;77.00
67750;DHT22;54550;48.838;8.828;2022-07-29T11:14:54;27.20;78.80
67750;DHT22;54550;48.838;8.828;2022-07-29T11:17:21;28.20;78.20
67750;DHT22;54550;48.838;8.828;2022-07-29T11:19:47;28.80;76.40
67750;DHT22;54550;48.838;8.828;2022-07-29T11:22:35;28.10;76.80
67750;DHT22;54550;48.838;8.828;2022-07-29T11:25:30;28.10;77.10
67750;DHT22;54550;48.838;8.828;2022-07-29T11:28:10;27.40;78.40
67750;DHT22;54550;48.838;8.828;2022-07-29T11:30:52;27.60;77.70
67750;DHT22;54550;48.838;8.828;2022-07-29T11:33:31;27.50;77.00
67750;DHT22;54550;48.838;8.828;2022-07-29T11:36:15;27.60;78.00
67750;DHT22;54550;48.838;8.828;2022-07-29T11:38:41;27.40;77.30
67750;DHT22;54550;48.838;8.828;2022-07-29T11:41:26;27.50;76.80
67750;DHT22;54550;48.838;8.828;2022-07-29T11:43:59;27.70;78.10
67750;DHT22;54550;48.838;8.828;2022-07-29T11:46:44;28.00;80.70
67750;DHT22;54550;48.838;8.828;2022-07-29T11:49:11;27.80;84.30
67750;DHT22;54550;48.838;8.828;2022-07-29T11:51:37;27.70;84.50
67750;DHT22;54550;48.838;8.828;2022-07-29T11:54:04;27.80;83.80
67750;DHT22;54550;48.838;8.828;2022-07-29T11:56:31;28.00;79.10
67750;DHT22;54550;48.838;8.828;2022-07-29T11:59:15;28.20;77.00
67750;DHT22;54550;48.838;8.828;2022-07-29T12:01:55;28.10;76.70
67750;DHT22;54550;48.838;8.828;2022-07-29T12:04:21;28.00;76.10
67750;DHT22;54550;48.838;8.828;2022-07-29T12:06:55;28.20;76.80
67750;DHT22;54550;48.838;8.828;2022-07-29T12:09:22;27.80;76.90
67750;DHT22;54550;48.838;8.828;2022-07-29T12:11:48;27.80;77.30
67750;DHT22;54550;48.838;8.828;2022-07-29T12:14:27;27.20;80.10
67750;DHT22;54550;48.838;8.828;2022-07-29T12:16:53;27.10;84.30
67750;DHT22;54550;48.838;8.828;2022-07-29T12:19:19;26.90;87.70
67750;DHT22;54550;48.838;8.828;2022-07-29T12:21:46;26.90;87.10
67750;DHT22;54550;48.838;8.828;2022-07-29T12:24:12;26.70;87.30
67750;DHT22;54550;48.838;8.828;2022-07-29T12:26:52;26.20;89.30
67750;DHT22;54550;48.838;8.828;2022-07-29T12:29:18;25.90;89.20
67750;DHT22;54550;48.838;8.828;2022-07-29T12:31:45;26.20;90.20
67750;DHT22;54550;48.838;8.828;2022-07-29T12:34:13;26.80;87.00
67750;DHT22;54550;48.838;8.828;2022-07-29T12:36:41;27.00;86.90
67750;DHT22;54550;48.838;8.828;2022-07-29T12:39:07;26.50;83.90
67750;DHT22;54550;48.838;8.828;2022-07-29T12:41:34;25.80;87.60
67750;DHT22;54550;48.838;8.828;2022-07-29T12:44:00;26.00;87.20
67750;DHT22;54550;48.838;8.828;2022-07-29T12:46:26;25.90;88.70
67750;DHT22;54550;48.838;8.828;2022-07-29T12:48:54;26.00;86.30
67750;DHT22;54550;48.838;8.828;2022-07-29T12:51:29;25.90;88.90
67750;DHT22;54550;48.838;8.828;2022-07-29T12:54:03;25.70;91.10
67750;DHT22;54550;48.838;8.828;2022-07-29T12:56:29;25.70;90.50
67750;DHT22;54550;48.838;8.828;2022-07-29T12:58:55;26.00;89.20
67750;DHT22;54550;48.838;8.828;2022-07-29T13:01:21;26.00;90.40
67750;DHT22;54550;48.838;8.828;2022-07-29T13:03:53;26.30;90.60
67750;DHT22;54550;48.838;8.828;2022-07-29T13:06:44;26.40;90.40
67750;DHT22;54550;48.838;8.828;2022-07-29T13:09:15;26.90;88.70
67750;DHT22;54550;48.838;8.828;2022-07-29T13:11:43;27.10;84.60
67750;DHT22;54550;48.838;8.828;2022-07-29T13:14:11;26.70;91.00
67750;DHT22;54550;48.838;8.828;2022-07-29T13:16:59;25.90;93.30
67750;DHT22;54550;48.838;8.828;2022-07-29T13:20:04;25.70;93.40
67750;DHT22;54550;48.838;8.828;2022-07-29T13:22:22;25.10;94.70
67750;DHT22;54550;48.838;8.828;2022-07-29T13:24:52;24.70;94.90
67750;DHT22;54550;48.838;8.828;2022-07-29T13:27:22;24.50;95.50
67750;DHT22;54550;48.838;8.828;2022-07-29T13:29:48;24.30;95.10
67750;DHT22;54550;48.838;8.828;2022-07-29T13:32:16;24.60;94.60
67750;DHT22;54550;48.838;8.828;2022-07-29T13:34:42;25.10;94.30
67750;DHT22;54550;48.838;8.828;2022-07-29T13:37:08;25.60;93.20
67750;DHT22;54550;48.838;8.828;2022-07-29T13:39:33;26.00;92.90
67750;DHT22;54550;48.838;8.828;2022-07-29T13:41:59;26.10;91.10
67750;DHT22;54550;48.838;8.828;2022-07-29T13:44:24;26.50;86.90
67750;DHT22;54550;48.838;8.828;2022-07-29T13:46:50;27.00;89.50
67750;DHT22;54550;48.838;8.828;2022-07-29T13:49:16;27.40;88.80
67750;DHT22;54550;48.838;8.828;2022-07-29T13:51:41;27.60;84.40
67750;DHT22;54550;48.838;8.828;2022-07-29T13:54:07;27.10;81.00
67750;DHT22;54550;48.838;8.828;2022-07-29T13:56:32;27.30;84.70
67750;DHT22;54550;48.838;8.828;2022-07-29T13:58:58;27.40;85.10
67750;DHT22;54550;48.838;8.828;2022-07-29T14:01:23;27.40;80.00
67750;DHT22;54550;48.838;8.828;2022-07-29T14:03:49;27.40;77.30
67750;DHT22;54550;48.838;8.828;2022-07-29T14:06:15;27.40;76.70
67750;DHT22;54550;48.838;8.828;2022-07-29T14:08:41;27.50;77.00
67750;DHT22;54550;48.838;8.828;2022-07-29T14:11:06;27.70;77.10
67750;DHT22;54550;48.838;8.828;2022-07-29T14:13:32;27.90;75.80
67750;DHT22;54550;48.838;8.828;2022-07-29T14:15:57;27.70;75.10
67750;DHT22;54550;48.838;8.828;2022-07-29T14:18:23;27.50;74.90
67750;DHT22;54550;48.838;8.828;2022-07-29T14:20:48;27.40;74.60
67750;DHT22;54550;48.838;8.828;2022-07-29T14:23:15;27.50;73.90
67750;DHT22;54550;48.838;8.828;2022-07-29T14:25:41;27.60;73.10
67750;DHT22;54550;48.838;8.828;2022-07-29T14:28:06;27.70;73.60
67750;DHT22;54550;48.838;8.828;2022-07-29T14:30:32;27.30;72.60
67750;DHT22;54550;48.838;8.828;2022-07-29T14:32:58;27.10;74.10
67750;DHT22;54550;48.838;8.828;2022-07-29T14:35:23;27.20;73.00
67750;DHT22;54550;48.838;8.828;2022-07-29T14:37:49;27.10;73.70
67750;DHT22;54550;48.838;8.828;2022-07-29T14:40:14;27.30;73.30
67750;DHT22;54550;48.838;8.828;2022-07-29T14:42:40;27.10;71.80
67750;DHT22;54550;48.838;8.828;2022-07-29T14:45:07;27.10;72.20
67750;DHT22;54550;48.838;8.828;2022-07-29T14:47:33;27.30;73.50
67750;DHT22;54550;48.838;8.828;2022-07-29T14:49:59;27.40;72.10
67750;DHT22;54550;48.838;8.828;2022-07-29T14:52:25;27.30;72.40
67750;DHT22;54550;48.838;8.828;2022-07-29T14:54:50;27.50;72.00
67750;DHT22;54550;48.838;8.828;2022-07-29T14:57:16;27.10;72.80
67750;DHT22;54550;48.838;8.828;2022-07-29T14:59:41;27.00;73.40
67750;DHT22;54550;48.838;8.828;2022-07-29T15:02:07;27.20;72.70
67750;DHT22;54550;48.838;8.828;2022-07-29T15:04:33;27.40;72.80
67750;DHT22;54550;48.838;8.828;2022-07-29T15:06:59;27.40;73.10
67750;DHT22;54550;48.838;8.828;2022-07-29T15:09:25;27.60;72.90
67750;DHT22;54550;48.838;8.828;2022-07-29T15:11:50;27.50;72.00
67750;DHT22;54550;48.838;8.828;2022-07-29T15:14:16;27.40;73.80
67750;DHT22;54550;48.838;8.828;2022-07-29T15:16:41;27.50;72.70
67750;DHT22;54550;48.838;8.828;2022-07-29T15:19:08;27.30;73.20
67750;DHT22;54550;48.838;8.828;2022-07-29T15:21:33;27.10;73.30
67750;DHT22;54550;48.838;8.828;2022-07-29T15:23:59;27.00;74.40
67750;DHT22;54550;48.838;8.828;2022-07-29T15:26:25;27.00;73.90
67750;DHT22;54550;48.838;8.828;2022-07-29T15:28:51;26.70;74.60
67750;DHT22;54550;48.838;8.828;2022-07-29T15:31:16;26.40;75.10
67750;DHT22;54550;48.838;8.828;2022-07-29T15:33:44;26.10;76.10
67750;DHT22;54550;48.838;8.828;2022-07-29T15:36:09;26.40;76.10
67750;DHT22;54550;48.838;8.828;2022-07-29T15:38:37;26.70;76.00
67750;DHT22;54550;48.838;8.828;2022-07-29T15:41:03;26.70;74.90
67750;DHT22;54550;48.838;8.828;2022-07-29T15:43:28;26.80;76.00
67750;DHT22;54550;48.838;8.828;2022-07-29T15:45:54;26.70;74.80
67750;DHT22;54550;48.838;8.828;2022-07-29T15:48:38;26.50;74.90
67750;DHT22;54550;48.838;8.828;2022-07-29T15:51:04;26.60;75.00
67750;DHT22;54550;48.838;8.828;2022-07-29T15:53:30;26.40;75.10
67750;DHT22;54550;48.838;8.828;2022-07-29T15:55:55;26.30;75.40
67750;DHT22;54550;48.838;8.828;2022-07-29T15:58:21;26.40;75.40
67750;DHT22;54550;48.838;8.828;2022-07-29T16:00:47;26.50;75.70
67750;DHT22;54550;48.838;8.828;2022-07-29T16:03:13;26.50;75.30
67750;DHT22;54550;48.838;8.828;2022-07-29T16:05:39;26.50;74.50
67750;DHT22;54550;48.838;8.828;2022-07-29T16:08:05;26.10;75.10